createdAt,value
2018-11-23T00:02:27.886Z,76.33
2018-11-23T00:04:58.843Z,83.63
2018-11-23T00:07:29.712Z,81.40
2018-11-23T00:10:00.910Z,80.70
2018-11-23T00:12:32.027Z,78.53
2018-11-23T00:15:03.340Z,86.67
2018-11-23T00:17:34.490Z,75.60
2018-11-23T00:20:07.505Z,79.60
2018-11-23T00:22:38.673Z,73.23
2018-11-23T00:25:12.562Z,75.67
2018-11-23T00:27:43.716Z,84.83
2018-11-23T00:30:26.636Z,88.27
2018-11-23T00:32:57.861Z,85.03
2018-11-23T00:35:30.193Z,81.97
2018-11-23T00:38:01.430Z,79.07
2018-11-23T00:40:33.070Z,86.73
2018-11-23T00:43:04.179Z,91.07
2018-11-23T00:45:35.751Z,79.57
2018-11-23T00:48:07.597Z,81.97
2018-11-23T00:50:38.580Z,83.43
2018-11-23T00:53:09.692Z,82.20
2018-11-23T00:55:40.796Z,84.30
2018-11-23T00:58:13.848Z,84.30
2018-11-23T01:00:45.019Z,87.57
2018-11-23T01:03:16.301Z,83.67
2018-11-23T01:05:48.310Z,76.27
2018-11-23T01:08:19.622Z,80.57
2018-11-23T01:10:50.891Z,89.40
2018-11-23T01:13:22.079Z,77.10
2018-11-23T01:15:53.155Z,82.50
2018-11-23T01:18:24.229Z,83.77
2018-11-23T01:20:55.340Z,89.30
2018-11-23T01:23:26.660Z,78.50
2018-11-23T01:25:57.787Z,82.77
2018-11-23T01:28:29.004Z,80.10
2018-11-23T01:31:00.059Z,91.17
2018-11-23T01:33:31.409Z,85.87
2018-11-23T01:36:03.350Z,86.77
2018-11-23T01:38:34.427Z,82.87
2018-11-23T01:41:05.974Z,86.90
2018-11-23T01:43:37.285Z,83.63
2018-11-23T01:46:08.551Z,88.77
2018-11-23T01:48:39.860Z,77.40
2018-11-23T01:51:11.089Z,75.43
2018-11-23T01:53:42.137Z,72.27
2018-11-23T01:56:13.362Z,68.33
2018-11-23T01:58:44.500Z,82.47
2018-11-23T02:01:16.362Z,72.43
2018-11-23T02:03:47.775Z,68.47
2018-11-23T02:06:18.900Z,71.97
2018-11-23T02:08:50.568Z,80.07
2018-11-23T02:11:22.379Z,78.53
2018-11-23T02:13:53.450Z,81.63
2018-11-23T02:16:24.564Z,82.60
2018-11-23T02:18:55.733Z,75.83
2018-11-23T02:21:26.931Z,80.40
2018-11-23T02:23:58.375Z,94.20
2018-11-23T02:26:29.248Z,79.73
2018-11-23T02:29:00.358Z,94.97
2018-11-23T02:31:32.210Z,94.40
2018-11-23T02:34:03.101Z,93.77
2018-11-23T02:36:34.056Z,93.73
2018-11-23T02:39:07.467Z,74.27
2018-11-23T02:41:38.496Z,88.07
2018-11-23T02:44:09.762Z,91.03
2018-11-23T02:46:41.207Z,80.00
2018-11-23T02:49:12.817Z,88.93
2018-11-23T02:51:44.012Z,91.00
2018-11-23T02:54:15.587Z,97.30
2018-11-23T02:56:47.690Z,86.20
2018-11-23T02:59:18.634Z,103.63
2018-11-23T03:01:49.568Z,99.47
2018-11-23T03:04:20.525Z,99.47
2018-11-23T03:06:51.801Z,116.73
2018-11-23T03:09:22.856Z,103.10
2018-11-23T03:11:54.191Z,116.90
2018-11-23T03:14:25.055Z,104.27
2018-11-23T03:16:56.116Z,107.63
2018-11-23T03:19:27.027Z,113.73
2018-11-23T03:21:58.288Z,111.57
2018-11-23T03:24:29.228Z,92.17
2018-11-23T03:27:00.716Z,106.03
2018-11-23T03:29:31.765Z,108.83
2018-11-23T03:32:02.683Z,121.93
2018-11-23T03:34:33.520Z,109.60
2018-11-23T03:37:04.545Z,121.50
2018-11-23T03:39:35.493Z,115.50
2018-11-23T03:42:06.651Z,132.00
2018-11-23T03:44:37.783Z,120.13
2018-11-23T03:47:08.778Z,130.33
2018-11-23T03:49:40.192Z,122.13
2018-11-23T03:52:11.120Z,135.47
2018-11-23T03:54:42.194Z,107.80
2018-11-23T03:57:13.259Z,130.77
2018-11-23T03:59:44.213Z,126.10
2018-11-23T04:02:15.204Z,122.50
2018-11-23T04:04:46.171Z,132.67
2018-11-23T04:07:17.060Z,124.73
2018-11-23T04:09:47.957Z,116.03
2018-11-23T04:12:19.022Z,113.27
2018-11-23T04:14:50.113Z,119.53
2018-11-23T04:17:21.335Z,126.93
2018-11-23T04:19:52.324Z,105.00
2018-11-23T04:22:23.367Z,119.27
2018-11-23T04:24:54.574Z,126.20
2018-11-23T04:27:25.606Z,116.50
2018-11-23T04:29:56.636Z,126.57
2018-11-23T04:32:27.791Z,120.23
2018-11-23T04:34:59.102Z,120.67
2018-11-23T04:37:30.037Z,120.07
2018-11-23T04:40:05.137Z,121.57
2018-11-23T04:42:36.450Z,126.47
2018-11-23T04:45:08.099Z,118.40
2018-11-23T04:47:42.752Z,117.70
2018-11-23T04:50:15.745Z,124.03
2018-11-23T04:53:02.107Z,116.37
2018-11-23T04:55:33.072Z,110.37
2018-11-23T04:58:04.108Z,112.70
2018-11-23T05:00:35.052Z,108.97
2018-11-23T05:03:06.286Z,106.93
2018-11-23T05:05:37.197Z,96.40
2018-11-23T05:08:11.176Z,114.20
2018-11-23T05:10:42.121Z,112.53
2018-11-23T05:13:12.981Z,114.87
2018-11-23T05:15:43.978Z,104.90
2018-11-23T05:18:14.990Z,115.03
2018-11-23T05:20:46.189Z,100.07
2018-11-23T05:23:17.251Z,103.47
2018-11-23T05:25:48.415Z,100.87
2018-11-23T05:28:19.436Z,95.70
2018-11-23T05:30:50.922Z,101.47
2018-11-23T05:33:21.851Z,102.00
2018-11-23T05:35:52.921Z,110.40
2018-11-23T05:38:24.129Z,90.83
2018-11-23T05:40:55.655Z,94.07
2018-11-23T05:43:26.699Z,100.07
2018-11-23T05:45:57.650Z,97.47
2018-11-23T05:48:28.516Z,99.67
2018-11-23T05:50:59.482Z,101.33
2018-11-23T05:53:30.433Z,99.63
2018-11-23T05:56:01.783Z,113.30
2018-11-23T05:58:32.652Z,102.20
2018-11-23T06:01:03.801Z,120.30
2018-11-23T06:03:35.096Z,117.20
2018-11-23T06:06:06.237Z,111.37
2018-11-23T06:08:37.335Z,106.77
2018-11-23T06:11:08.845Z,125.27
2018-11-23T06:13:40.532Z,112.87
2018-11-23T06:16:12.090Z,114.90
2018-11-23T06:18:43.144Z,119.03
2018-11-23T06:21:14.354Z,115.67
2018-11-23T06:23:45.512Z,116.40
2018-11-23T06:26:22.993Z,122.27
2018-11-23T06:28:54.641Z,115.60
2018-11-23T06:31:25.661Z,103.17
2018-11-23T06:33:56.829Z,101.13
2018-11-23T06:36:27.951Z,98.97
2018-11-23T06:38:59.031Z,93.13
2018-11-23T06:41:30.312Z,107.70
2018-11-23T06:44:01.895Z,98.50
2018-11-23T06:46:33.222Z,98.83
2018-11-23T06:49:04.625Z,98.53
2018-11-23T06:51:36.248Z,94.20
2018-11-23T06:54:08.550Z,94.40
2018-11-23T06:56:40.060Z,91.17
2018-11-23T06:59:11.250Z,98.63
2018-11-23T07:01:42.443Z,97.03
2018-11-23T07:04:13.680Z,93.33
2018-11-23T07:06:44.895Z,86.00
2018-11-23T07:09:16.302Z,95.43
2018-11-23T07:11:47.456Z,86.13
2018-11-23T07:14:18.590Z,82.30
2018-11-23T07:16:49.755Z,84.40
2018-11-23T07:19:20.762Z,85.63
2018-11-23T07:21:52.081Z,88.20
2018-11-23T07:24:23.090Z,85.87
2018-11-23T07:26:54.317Z,78.43
2018-11-23T07:29:25.463Z,85.53
2018-11-23T07:31:56.743Z,92.33
2018-11-23T07:34:28.117Z,85.43
2018-11-23T07:36:59.361Z,85.27
2018-11-23T07:40:25.570Z,89.37
2018-11-23T07:42:57.196Z,83.00
2018-11-23T07:45:28.656Z,76.87
2018-11-23T07:47:59.951Z,85.30
2018-11-23T07:50:31.105Z,77.50
2018-11-23T07:53:02.269Z,83.60
2018-11-23T07:55:33.544Z,92.20
2018-11-23T07:58:04.757Z,84.90
2018-11-23T08:00:35.938Z,88.80
2018-11-23T08:03:07.615Z,82.53
2018-11-23T08:05:39.112Z,81.03
2018-11-23T08:08:10.455Z,84.83
2018-11-23T08:10:40.272Z,86.33
2018-11-23T08:13:11.727Z,81.57
2018-11-23T08:15:42.981Z,80.17
2018-11-23T08:18:14.271Z,81.40
2018-11-23T08:20:45.546Z,82.17
2018-11-23T08:23:16.632Z,85.60
2018-11-23T08:25:47.821Z,85.57
2018-11-23T08:28:18.717Z,86.53
2018-11-23T08:30:49.786Z,85.47
2018-11-23T08:33:21.524Z,80.67
2018-11-23T08:35:52.828Z,76.57
2018-11-23T08:38:23.936Z,78.67
2018-11-23T08:40:55.169Z,79.27
2018-11-23T08:43:26.751Z,85.37
2018-11-23T08:45:57.867Z,84.83
2018-11-23T08:48:29.092Z,78.07
2018-11-23T08:51:00.231Z,81.30
2018-11-23T08:53:35.368Z,78.67
2018-11-23T08:56:07.077Z,73.53
2018-11-23T08:58:38.329Z,74.63
2018-11-23T09:01:09.602Z,72.37
2018-11-23T09:03:40.866Z,69.10
2018-11-23T09:06:12.115Z,70.27
2018-11-23T09:08:43.402Z,77.60
2018-11-23T09:11:14.732Z,71.70
2018-11-23T09:13:46.055Z,70.80
2018-11-23T09:16:17.212Z,67.80
2018-11-23T09:18:48.840Z,69.20
2018-11-23T09:21:20.388Z,69.27
2018-11-23T09:23:51.522Z,66.17
2018-11-23T09:26:22.821Z,65.60
2018-11-23T09:28:54.062Z,68.97
2018-11-23T09:31:25.974Z,71.60
2018-11-23T09:33:57.104Z,71.33
2018-11-23T09:36:28.485Z,67.97
2018-11-23T09:39:00.022Z,65.80
2018-11-23T09:41:31.655Z,71.47
2018-11-23T09:44:02.923Z,69.30
2018-11-23T09:46:33.967Z,76.30
2018-11-23T09:49:05.579Z,81.77
2018-11-23T09:51:36.710Z,72.67
2018-11-23T09:54:08.345Z,76.23
2018-11-23T09:56:39.806Z,78.83
2018-11-23T09:59:10.971Z,84.30
2018-11-23T10:01:42.634Z,75.33
2018-11-23T10:04:13.944Z,75.00
2018-11-23T10:06:45.258Z,77.47
2018-11-23T10:09:16.990Z,83.63
2018-11-23T10:11:47.984Z,86.37
2018-11-23T10:14:19.280Z,84.03
2018-11-23T10:16:50.559Z,74.17
2018-11-23T10:19:40.804Z,73.97
2018-11-23T10:22:12.148Z,75.93
2018-11-23T10:24:43.337Z,69.03
2018-11-23T10:27:14.595Z,69.03
2018-11-23T10:29:45.665Z,74.07
2018-11-23T10:32:17.153Z,75.03
2018-11-23T10:34:48.568Z,77.53
2018-11-23T10:37:19.704Z,75.03
2018-11-23T10:39:50.950Z,79.27
2018-11-23T10:42:22.145Z,78.47
2018-11-23T10:44:53.457Z,78.40
2018-11-23T10:47:24.509Z,72.03
2018-11-23T10:49:55.955Z,79.77
2018-11-23T10:52:26.989Z,74.23
2018-11-23T10:54:58.135Z,78.33
2018-11-23T10:57:29.418Z,83.83
2018-11-23T11:00:00.647Z,77.90
2018-11-23T11:02:44.922Z,78.07
2018-11-23T11:05:38.155Z,77.00
2018-11-23T11:08:09.801Z,80.53
2018-11-23T11:10:41.138Z,82.60
2018-11-23T11:13:12.431Z,75.50
2018-11-23T11:15:43.641Z,79.87
2018-11-23T11:18:14.838Z,75.53
2018-11-23T11:20:45.961Z,85.13
2018-11-23T11:23:17.178Z,94.20
2018-11-23T11:25:48.187Z,80.87
2018-11-23T11:28:19.532Z,82.23
2018-11-23T11:30:50.757Z,78.13
2018-11-23T11:33:21.945Z,87.33
2018-11-23T11:35:53.283Z,83.47
2018-11-23T11:38:24.432Z,87.43
2018-11-23T11:40:55.969Z,83.60
2018-11-23T11:43:27.001Z,75.77
2018-11-23T11:45:58.230Z,75.90
2018-11-23T11:48:29.324Z,88.73
2018-11-23T11:51:00.967Z,98.33
2018-11-23T11:53:32.016Z,87.80
2018-11-23T11:56:03.353Z,80.17
2018-11-23T11:58:34.435Z,89.10
2018-11-23T12:01:05.828Z,100.00
2018-11-23T12:03:37.269Z,96.20
2018-11-23T12:06:08.630Z,100.07
2018-11-23T12:08:39.840Z,101.77
2018-11-23T12:11:10.707Z,94.97
2018-11-23T12:13:41.569Z,101.73
2018-11-23T12:16:12.541Z,103.40
2018-11-23T12:18:44.281Z,94.80
2018-11-23T12:21:15.242Z,99.57
2018-11-23T12:23:46.400Z,84.07
2018-11-23T12:26:18.040Z,83.47
2018-11-23T12:28:49.436Z,86.60
2018-11-23T12:31:20.698Z,93.57
2018-11-23T12:33:52.454Z,82.40
2018-11-23T12:36:23.613Z,77.93
2018-11-23T12:38:54.678Z,75.37
2018-11-23T12:41:26.133Z,76.70
2018-11-23T12:43:57.460Z,65.83
2018-11-23T12:46:28.403Z,70.67
2018-11-23T12:48:59.340Z,71.93
2018-11-23T12:51:30.393Z,68.53
2018-11-23T12:54:01.353Z,78.03
2018-11-23T12:56:32.349Z,68.27
2018-11-23T12:59:03.220Z,65.83
2018-11-23T13:01:34.080Z,63.40
2018-11-23T13:04:05.552Z,62.27
2018-11-23T13:06:36.511Z,71.10
2018-11-23T13:09:09.758Z,63.67
2018-11-23T13:11:42.800Z,72.20
2018-11-23T13:14:13.864Z,67.80
2018-11-23T13:16:44.920Z,65.17
2018-11-23T13:19:15.896Z,68.77
2018-11-23T13:21:47.061Z,69.40
2018-11-23T13:24:18.226Z,68.73
2018-11-23T13:26:49.290Z,65.50
2018-11-23T13:29:20.418Z,61.53
2018-11-23T13:31:51.304Z,60.60
2018-11-23T13:34:22.817Z,61.13
2018-11-23T13:36:54.163Z,62.50
2018-11-23T13:39:25.149Z,56.93
2018-11-23T13:41:56.292Z,64.23
2018-11-23T13:44:27.282Z,61.77
2018-11-23T13:46:58.293Z,61.60
2018-11-23T13:49:29.728Z,60.43
2018-11-23T13:52:01.035Z,58.10
2018-11-23T13:54:32.245Z,57.20
2018-11-23T13:57:03.492Z,54.47
2018-11-23T13:59:34.687Z,56.13
2018-11-23T14:02:05.789Z,57.67
2018-11-23T14:04:37.107Z,55.33
2018-11-23T14:07:08.235Z,57.70
2018-11-23T14:09:39.417Z,56.87
2018-11-23T14:12:10.589Z,54.00
2018-11-23T14:14:41.907Z,47.30
2018-11-23T14:17:13.266Z,50.97
2018-11-23T14:19:44.118Z,47.83
2018-11-23T14:22:15.298Z,48.10
2018-11-23T14:24:46.250Z,45.83
2018-11-23T14:27:17.378Z,48.07
2018-11-23T14:29:48.236Z,56.60
2018-11-23T14:32:19.757Z,50.50
2018-11-23T14:34:51.531Z,51.50
2018-11-23T14:37:22.462Z,53.40
2018-11-23T14:39:53.538Z,45.90
2018-11-23T14:42:24.445Z,51.13
2018-11-23T14:44:55.420Z,48.77
2018-11-23T14:47:26.277Z,52.20
2018-11-23T14:49:57.319Z,50.83
2018-11-23T14:52:28.387Z,54.20
2018-11-23T14:54:59.756Z,52.50
2018-11-23T14:57:30.971Z,54.63
2018-11-23T15:00:02.065Z,55.07
2018-11-23T15:02:33.136Z,56.10
2018-11-23T15:05:04.262Z,57.40
2018-11-23T15:07:35.238Z,53.03
2018-11-23T15:10:11.920Z,58.33
2018-11-23T15:12:43.128Z,54.97
2018-11-23T15:15:16.293Z,52.93
2018-11-23T15:17:48.496Z,53.53
2018-11-23T15:20:24.808Z,54.60
2018-11-23T15:23:08.085Z,50.93
2018-11-23T15:25:39.415Z,55.37
2018-11-23T15:28:12.532Z,48.47
2018-11-23T15:30:44.309Z,56.20
2018-11-23T15:33:16.981Z,55.73
2018-11-23T15:35:48.810Z,56.13
2018-11-23T15:38:27.272Z,59.23
2018-11-23T15:40:58.579Z,56.17
2018-11-23T15:43:29.741Z,51.27
2018-11-23T15:46:00.824Z,61.27
2018-11-23T15:48:31.974Z,55.23
2018-11-23T15:51:09.791Z,58.17
2018-11-23T15:53:40.845Z,54.97
2018-11-23T15:56:11.983Z,60.63
2018-11-23T15:58:43.307Z,57.83
2018-11-23T16:01:14.537Z,54.77
2018-11-23T16:03:45.777Z,54.97
2018-11-23T16:06:16.827Z,57.43
2018-11-23T16:08:48.025Z,54.33
2018-11-23T16:11:18.965Z,54.00
2018-11-23T16:13:50.634Z,56.23
2018-11-23T16:16:22.473Z,52.87
2018-11-23T16:18:53.465Z,59.10
2018-11-23T16:21:24.722Z,55.97
2018-11-23T16:23:55.644Z,53.37
2018-11-23T16:26:26.653Z,54.87
2018-11-23T16:28:57.977Z,57.40
2018-11-23T16:31:29.116Z,56.47
2018-11-23T16:34:00.303Z,55.27
2018-11-23T16:36:31.415Z,57.10
2018-11-23T16:39:02.584Z,54.53
2018-11-23T16:41:33.709Z,55.80
2018-11-23T16:44:04.898Z,60.70
2018-11-23T16:46:36.392Z,57.90
2018-11-23T16:49:07.554Z,56.73
2018-11-23T16:51:38.615Z,49.90
2018-11-23T16:54:09.595Z,58.43
2018-11-23T16:56:45.718Z,54.83
2018-11-23T16:59:16.991Z,55.93
2018-11-23T17:01:48.737Z,52.53
2018-11-23T17:04:20.217Z,51.50
2018-11-23T17:06:51.448Z,50.63
2018-11-23T17:09:22.696Z,56.97
2018-11-23T17:14:26.940Z,59.53
2018-11-23T17:17:01.922Z,51.30
2018-11-23T17:19:34.118Z,54.50
2018-11-23T17:22:14.806Z,54.27
2018-11-23T17:24:46.841Z,57.03
2018-11-23T17:27:18.317Z,49.47
2018-11-23T17:29:49.306Z,52.77
2018-11-23T17:32:21.009Z,49.43
2018-11-23T17:34:52.725Z,54.20
2018-11-23T17:37:23.901Z,53.40
2018-11-23T17:39:57.665Z,64.27
2018-11-23T17:42:28.772Z,50.03
2018-11-23T17:45:00.216Z,54.37
2018-11-23T17:47:31.407Z,57.10
2018-11-23T17:50:02.280Z,53.63
2018-11-23T17:52:33.554Z,52.57
2018-11-23T17:55:04.643Z,56.50
2018-11-23T17:57:36.007Z,52.57
2018-11-23T18:00:11.021Z,50.30
2018-11-23T18:02:42.285Z,50.67
2018-11-23T18:05:14.996Z,53.13
2018-11-23T18:07:46.197Z,59.93
2018-11-23T18:10:36.402Z,61.67
2018-11-23T18:13:07.750Z,62.57
2018-11-23T18:15:38.845Z,62.93
2018-11-23T18:18:10.341Z,61.47
2018-11-23T18:20:42.525Z,69.77
2018-11-23T18:23:14.092Z,69.73
2018-11-23T18:25:45.568Z,70.70
2018-11-23T18:28:16.784Z,72.53
2018-11-23T18:30:48.291Z,71.77
2018-11-23T18:33:19.493Z,70.77
2018-11-23T18:35:50.564Z,75.73
2018-11-23T18:38:21.909Z,68.50
2018-11-23T18:40:53.109Z,72.13
2018-11-23T18:43:24.320Z,70.10
2018-11-23T18:45:55.467Z,71.07
2018-11-23T18:48:26.587Z,70.10
2018-11-23T18:50:57.730Z,79.17
2018-11-23T18:53:28.874Z,75.03
2018-11-23T18:56:00.321Z,75.50
2018-11-23T18:58:31.651Z,72.50
2018-11-23T19:01:02.766Z,74.17
2018-11-23T19:03:34.025Z,68.53
2018-11-23T19:06:05.329Z,63.37
2018-11-23T19:08:36.804Z,71.17
2018-11-23T19:11:08.621Z,69.10
2018-11-23T19:13:39.668Z,64.70
2018-11-23T19:16:11.519Z,64.87
2018-11-23T19:18:42.804Z,63.00
2018-11-23T19:21:13.874Z,59.83
2018-11-23T19:23:45.061Z,61.70
2018-11-23T19:26:16.616Z,57.53
2018-11-23T19:28:48.168Z,64.77
2018-11-23T19:31:19.429Z,71.77
2018-11-23T19:33:50.887Z,74.43
2018-11-23T19:36:22.327Z,62.53
2018-11-23T19:38:53.541Z,62.10
2018-11-23T19:41:26.060Z,63.97
2018-11-23T19:43:56.931Z,59.60
2018-11-23T19:46:28.158Z,62.83
2018-11-23T19:48:59.685Z,65.90
2018-11-23T19:51:31.030Z,62.73
2018-11-23T19:54:02.002Z,59.73
2018-11-23T19:56:33.245Z,58.50
2018-11-23T19:59:04.454Z,58.33
2018-11-23T20:01:35.961Z,62.10
2018-11-23T20:04:07.614Z,60.93
2018-11-23T20:06:42.864Z,68.87
2018-11-23T20:09:12.298Z,65.10
2018-11-23T20:11:43.454Z,67.50
2018-11-23T20:14:15.283Z,60.77
2018-11-23T20:16:46.675Z,68.10
2018-11-23T20:19:18.035Z,73.43
2018-11-23T20:21:49.501Z,69.43
2018-11-23T20:24:20.805Z,70.73
2018-11-23T20:26:52.141Z,72.80
2018-11-23T20:29:23.651Z,66.97
2018-11-23T20:31:55.181Z,76.10
2018-11-23T20:34:27.880Z,77.73
2018-11-23T20:36:59.610Z,82.00
2018-11-23T20:39:31.098Z,72.70
2018-11-23T20:42:02.367Z,72.90
2018-11-23T20:44:33.902Z,74.80
2018-11-23T20:47:05.010Z,80.43
2018-11-23T20:49:36.445Z,76.97
2018-11-23T20:52:07.927Z,78.53
2018-11-23T20:54:39.115Z,88.53
2018-11-23T20:57:10.480Z,79.77
2018-11-23T20:59:41.610Z,82.53
2018-11-23T21:02:12.790Z,83.50
2018-11-23T21:04:44.338Z,74.83
2018-11-23T21:07:15.360Z,77.60
2018-11-23T21:09:46.505Z,82.87
2018-11-23T21:12:17.816Z,81.63
2018-11-23T21:14:49.058Z,77.73
2018-11-23T21:17:21.018Z,77.17
2018-11-23T21:19:52.264Z,73.73
2018-11-23T21:22:23.648Z,76.23
2018-11-23T21:24:55.338Z,73.43
2018-11-23T21:27:26.537Z,80.67
2018-11-23T21:29:58.431Z,84.97
2018-11-23T21:32:30.135Z,103.97
2018-11-23T21:35:01.577Z,92.93
2018-11-23T21:37:33.026Z,91.67
2018-11-23T21:40:04.583Z,95.23
2018-11-23T21:42:36.124Z,99.77
2018-11-23T21:45:09.303Z,95.53
2018-11-23T21:47:40.761Z,84.73
2018-11-23T21:50:14.171Z,107.33
2018-11-23T21:52:46.063Z,85.23
2018-11-23T21:55:26.819Z,94.07
2018-11-23T21:57:58.584Z,117.50
2018-11-23T22:00:30.115Z,99.40
2018-11-23T22:03:01.989Z,113.33
2018-11-23T22:05:33.334Z,103.17
2018-11-23T22:08:04.991Z,99.23
2018-11-23T22:10:36.175Z,109.93
2018-11-23T22:13:07.864Z,107.57
2018-11-23T22:15:38.965Z,99.37
2018-11-23T22:18:10.408Z,89.90
2018-11-23T22:20:41.540Z,95.30
2018-11-23T22:23:12.791Z,104.87
2018-11-23T22:25:43.740Z,105.20
2018-11-23T22:28:15.105Z,95.97
2018-11-23T22:30:46.152Z,95.30
2018-11-23T22:33:17.675Z,91.00
2018-11-23T22:35:49.187Z,98.27
2018-11-23T22:38:20.438Z,94.97
2018-11-23T22:40:51.940Z,85.90
2018-11-23T22:43:23.127Z,96.93
2018-11-23T22:45:54.794Z,97.80
2018-11-23T22:48:26.267Z,81.90
2018-11-23T22:50:57.335Z,90.03
2018-11-23T22:53:28.419Z,91.23
2018-11-23T22:55:59.787Z,86.13
2018-11-23T22:58:30.829Z,91.17
2018-11-23T23:01:05.122Z,89.13
2018-11-23T23:03:36.223Z,87.67
2018-11-23T23:06:07.538Z,84.30
2018-11-23T23:08:38.576Z,86.23
2018-11-23T23:11:09.753Z,81.43
2018-11-23T23:13:41.110Z,77.47
2018-11-23T23:16:12.387Z,81.20
2018-11-23T23:18:43.823Z,78.33
2018-11-23T23:21:15.295Z,81.03
2018-11-23T23:23:46.330Z,83.30
2018-11-23T23:26:17.351Z,90.63
2018-11-23T23:28:48.853Z,81.60
2018-11-23T23:31:20.099Z,85.27
2018-11-23T23:33:51.578Z,82.23
2018-11-23T23:36:22.876Z,75.57
2018-11-23T23:38:54.062Z,72.37
2018-11-23T23:41:25.671Z,80.03
2018-11-23T23:43:56.703Z,83.10
2018-11-23T23:46:27.780Z,82.60
2018-11-23T23:48:59.209Z,83.47
2018-11-23T23:51:30.514Z,89.17
2018-11-23T23:54:02.002Z,80.23
2018-11-23T23:56:33.260Z,77.03
2018-11-23T23:59:04.525Z,84.33
